Home > Products > Valid Products > MTR

000
SAUS44 KSHV 232158
MTRAQV
METAR KAQV 232156Z AUTO 13003KT 10SM SCT070 27/14 A2986 RMK AO2
SLP110 T02670144





000
SAUS44 KSHV 232156
MTRPOE
METAR KPOE 232155Z AUTO 14008KT 10SM FEW060 28/13 A2987 RMK AO2
SLP116 T02830133





000
SAUS44 KSHV 232155
MTRBKB
METAR KBKB 232154Z AUTO VRB04KT 10SM CLR 28/13 A2985 RMK AO2 SLP133
T02830133





000
SAUS44 KSHV 232057
MTRAQV
METAR KAQV 232056Z AUTO VRB03KT 10SM CLR 28/13 A2987 RMK AO2 SLP114
T02830133 58026





000
SAUS44 KSHV 232056
MTRPOE
METAR KPOE 232055Z AUTO VRB03KT 10SM BKN060 28/13 A2989 RMK AO2
SLP122 T02780128 58025





000
SAUS44 KSHV 232055
MTRBKB
METAR KBKB 232054Z AUTO VRB05KT 10SM CLR 29/13 A2987 RMK AO2 SLP139
T02890128 58025





000
SAUS44 KSHV 231959
MTRAQV
METAR KAQV 231956Z AUTO VRB05KT 10SM FEW060 28/13 A2991 RMK AO2
SLP125 T02780133





000
SAUS44 KSHV 231956
MTRPOE
METAR KPOE 231955Z AUTO 12005KT 10SM OVC065 28/13 A2992 RMK AO2
SLP132 T02780128





000
SAUS44 KSHV 231955
MTRBKB
METAR KBKB 231954Z AUTO VRB04KT 10SM SCT065 28/13 A2990 RMK AO2
SLP150 T02780128





000
SAUS44 KSHV 231857
MTRAQV
METAR KAQV 231856Z AUTO 12006KT 10SM BKN060 28/13 A2993 RMK AO2
SLP133 T02780133





000
SAUS44 KSHV 231856
MTRPOE
METAR KPOE 231855Z AUTO 17005KT 10SM BKN065 26/14 A2995 RMK AO2
SLP142 T02560139





000
SAUS44 KSHV 231855
MTRBKB
METAR KBKB 231854Z AUTO 00000KT 10SM CLR 28/13 A2992 RMK AO2 SLP158
T02780133





000
SAUS44 KSHV 231759
MTRAQV
METAR KAQV 231756Z AUTO VRB05KT 10SM FEW050 27/14 A2995 RMK AO2
SLP140 T02720144 10272 20144 58011





000
SAUS44 KSHV 231757
MTRPOE
METAR KPOE 231755Z AUTO 16005KT 10SM BKN055 27/13 A2996 RMK AO2
SLP147 T02720128 10272 20144 58012





000
SAUS44 KSHV 231755
MTRBKB
METAR KBKB 231754Z AUTO 10SM CLR 28/13 A2994 RMK AO2 SLP164
T02780133 10283 20144 58013





000
SAUS44 KSHV 231657
MTRPOE
METAR KPOE 231655Z AUTO 18007KT 130V190 10SM FEW048 26/14 A2998 RMK
AO2 SLP154 T02610139





000
SAUS44 KSHV 231657
MTRAQV
METAR KAQV 231656Z AUTO 15004KT 10SM SCT046 26/14 A2997 RMK AO2
SLP147 T02610144





000
SAUS44 KSHV 231655
MTRBKB
METAR KBKB 231654Z AUTO VRB05KT 10SM SCT049 SCT060 27/14 A2996 RMK
AO2 SLP173 T02720139





000
SAUS44 KSHV 231559
MTRAQV
METAR KAQV 231556Z AUTO VRB05KT 10SM CLR 25/16 A2998 RMK AO2 SLP151
T02500156





000
SAUS44 KSHV 231557
MTRPOE
METAR KPOE 231555Z AUTO 12006KT 10SM CLR 25/16 A3000 RMK AO2 SLP159
T02500156





000
SAUS44 KSHV 231555
MTRBKB
METAR KBKB 231554Z AUTO 11004KT 10SM CLR 26/15 A2997 RMK AO2 SLP176
T02610150





000
SAUS44 KSHV 231458
MTRBKB
METAR KBKB 231454Z AUTO VRB03KT 10SM CLR 25/16 A2998 RMK AO2 SLP177
T02500156 51007





000
SAUS44 KSHV 231457
MTRAQV
METAR KAQV 231456Z AUTO 12005KT 10SM CLR 23/16 A2999 RMK AO2 SLP151
T02330156 51007





000
SAUS44 KSHV 231456
MTRPOE
METAR KPOE 231455Z AUTO 12005KT 10SM CLR 23/16 A3000 RMK AO2 SLP159
T02330156 51008





000
SAUS44 KSHV 231435
MTRPOE
SPECI KPOE 231433Z AUTO 12004KT 10SM FEW003 23/16 A2999 RMK AO2





000
SAUS44 KSHV 231357
MTRAQV
METAR KAQV 231356Z AUTO VRB04KT 10SM CLR 21/16 A2998 RMK AO2 SLP151
T02110161





000
SAUS44 KSHV 231356
MTRPOE
METAR KPOE 231355Z AUTO 00000KT 10SM CLR 21/16 A2999 RMK AO2 SLP157
T02110161





000
SAUS44 KSHV 231355
MTRBKB
METAR KBKB 231354Z AUTO VRB03KT 10SM CLR 23/16 A2997 RMK AO2 SLP175
T02280161





000
SAUS44 KSHV 231257
MTRAQV
METAR KAQV 231256Z AUTO 00000KT 7SM CLR 17/16 A2997 RMK AO2 SLP148
T01720156





000
SAUS44 KSHV 231256
MTRPOE
METAR KPOE 231255Z AUTO 00000KT 10SM CLR 17/16 A2998 RMK AO2 SLP155
T01720156





000
SAUS44 KSHV 231256
MTRBKB
METAR KBKB 231254Z AUTO 00000KT 9SM CLR 17/14 A2996 RMK AO2 SLP174
T01670144





000
SAUS44 KSHV 231157
MTRAQV
METAR KAQV 231156Z AUTO 00000KT 4SM BR CLR 14/13 A2996 RMK AO2
SLP145 7//// T01440133 10161 20139 53011 $





000
SAUS44 KSHV 231156
MTRPOE
METAR KPOE 231155Z AUTO 00000KT 10SM CLR 14/13 A2997 RMK AO2 SLP151
T01440128 10167 20139 53010





000
SAUS44 KSHV 231155
MTRBKB
METAR KBKB 231154Z AUTO 00000KT 5SM BR CLR 14/12 A2996 RMK AO2
SLP171 T01440122 10167 20139 53011





000
SAUS44 KSHV 231058
MTRAQV
METAR KAQV 231056Z AUTO 00000KT 5SM BR CLR 14/13 A2995 RMK AO2
SLP139 T01440133 $





000
SAUS44 KSHV 231056
MTRPOE
METAR KPOE 231055Z AUTO 00000KT 10SM CLR 14/13 A2996 RMK AO2 SLP146
T01440133





000
SAUS44 KSHV 231055
MTRBKB
METAR KBKB 231054Z AUTO 00000KT 6SM BR CLR 14/13 A2994 RMK AO2
SLP164 T01440128





000
SAUS44 KSHV 230957
MTRAQV
METAR KAQV 230956Z AUTO 00000KT 7SM CLR 14/13 A2994 RMK AO2 SLP137
T01440133 $





000
SAUS44 KSHV 230956
MTRPOE
METAR KPOE 230955Z AUTO 00000KT 10SM CLR 14/13 A2995 RMK AO2 SLP142
T01440133





000
SAUS44 KSHV 230955
MTRBKB
METAR KBKB 230954Z AUTO 00000KT 5SM BR CLR 14/13 A2993 RMK AO2
SLP161 T01440128





000
SAUS44 KSHV 230857
MTRPOE
METAR KPOE 230855Z AUTO 00000KT 10SM CLR 15/14 A2994 RMK AO2 SLP140
T01500139 57004





000
SAUS44 KSHV 230857
MTRAQV
METAR KAQV 230856Z AUTO 00000KT 6SM BR CLR 15/14 A2993 RMK AO2
SLP134 T01500139 58005 $





000
SAUS44 KSHV 230855
MTRBKB
METAR KBKB 230854Z AUTO 00000KT 6SM BR CLR 15/13 A2992 RMK AO2
SLP159 T01500133 58003





000
SAUS44 KSHV 230759
MTRAQV
METAR KAQV 230756Z AUTO 00000KT 7SM CLR 15/14 A2993 RMK AO2 SLP135
T01500144 $





000
SAUS44 KSHV 230757
MTRPOE
METAR KPOE 230755Z AUTO 00000KT 10SM CLR 16/14 A2994 RMK AO2 SLP140
T01560139





000
SAUS44 KSHV 230755
MTRBKB
METAR KBKB 230754Z AUTO 00000KT 6SM BR CLR 16/13 A2993 RMK AO2
SLP160 T01560133





000
SAUS44 KSHV 230657
MTRAQV
METAR KAQV 230656Z AUTO 00000KT 7SM CLR 16/15 A2995 RMK AO2 SLP139
T01560150 $





000
SAUS44 KSHV 230657
MTRPOE
METAR KPOE 230655Z AUTO 00000KT 10SM CLR 16/14 A2995 RMK AO2 SLP144
T01610144





000
SAUS44 KSHV 230655
MTRBKB
METAR KBKB 230654Z AUTO 00000KT 8SM CLR 16/14 A2993 RMK AO2 SLP162
T01610139





000
SAUS44 KSHV 230557
MTRAQV
METAR KAQV 230556Z AUTO 00000KT 6SM BR CLR 16/16 A2995 RMK AO2
SLP139 T01610156 10250 20161 402720161 53001 $





000
SAUS44 KSHV 230556
MTRPOE
METAR KPOE 230555Z AUTO 00000KT 10SM CLR 16/14 A2995 RMK AO2 SLP144
T01610144 10256 20161 51001





000
SAUS44 KSHV 230555
MTRBKB
METAR KBKB 230554Z AUTO 00000KT 9SM CLR 17/14 A2993 RMK AO2 SLP162
T01670144 10261 20167 402890167 50002





000
SAUS44 KSHV 230458
MTRAQV
METAR KAQV 230456Z AUTO 00000KT 7SM CLR 17/16 A2994 RMK AO2 SLPNO
T01720161 $





000
SAUS44 KSHV 230456
MTRPOE
METAR KPOE 230455Z AUTO 00000KT 10SM CLR 17/15 A2995 RMK AO2 SLP144
T01670150 402720167





000
SAUS44 KSHV 230455
MTRBKB
METAR KBKB 230454Z AUTO 00000KT 10SM FEW050 17/15 A2993 RMK AO2
SLP163 T01720150





000
SAUS44 KSHV 230358
MTRAQV
METAR KAQV 230356Z AUTO 00000KT 7SM SCT050 18/17 A2994 RMK AO2 SLPNO
T01780167 $





000
SAUS44 KSHV 230356
MTRPOE
METAR KPOE 230355Z AUTO 00000KT 10SM CLR 18/16 A2995 RMK AO2 SLP144
T01780156





000
SAUS44 KSHV 230355
MTRBKB
METAR KBKB 230354Z AUTO 00000KT 10SM CLR 18/15 A2993 RMK AO2 SLP162
T01780150





000
SAUS44 KSHV 230257
MTRPOE
METAR KPOE 230255Z AUTO 00000KT 10SM CLR 19/16 A2995 RMK AO2 SLP144
T01890161 53016





000
SAUS44 KSHV 230257
MTRAQV
METAR KAQV 230256Z AUTO 00000KT 8SM BKN050 18/17 A2994 RMK AO2 SLPNO
T01830172 53014 $





000
SAUS44 KSHV 230256
MTRBKB
METAR KBKB 230254Z AUTO 00000KT 10SM CLR 19/16 A2993 RMK AO2 SLP162
T01890156 53016





000
SAUS44 KSHV 230158
MTRAQV
METAR KAQV 230156Z AUTO 00000KT 10SM CLR 19/18 A2992 RMK AO2 SLPNO
T01940178 $





000
SAUS44 KSHV 230156
MTRPOE
METAR KPOE 230155Z AUTO 00000KT 10SM CLR 21/16 A2993 RMK AO2 SLP137
T02060161





000
SAUS44 KSHV 230155
MTRBKB
METAR KBKB 230154Z AUTO 00000KT 10SM CLR 21/16 A2991 RMK AO2 SLP154
T02060161





000
SAUS44 KSHV 230058
MTRAQV
METAR KAQV 230056Z AUTO 00000KT 10SM CLR 21/18 A2990 RMK AO2 SLPNO
T02110178 $





000
SAUS44 KSHV 230056
MTRPOE
METAR KPOE 230055Z AUTO 00000KT 10SM CLR 23/16 A2991 RMK AO2 SLP130
T02280161





000
SAUS44 KSHV 230056
MTRBKB
METAR KBKB 230054Z AUTO 00000KT 10SM CLR 23/17 A2989 RMK AO2 SLP147
T02280167





000
SAUS44 KSHV 222357
MTRAQV
METAR KAQV 222356Z AUTO 36004KT 10SM CLR 26/16 A2990 RMK AO2 SLPNO
6//// T02560161 10272 20239 56009 $





000
SAUS44 KSHV 222357
MTRPOE
METAR KPOE 222355Z AUTO 34006KT 10SM FEW048 26/14 A2991 RMK AO2
SLP127 T02560144 10272 20239 56008





000
SAUS44 KSHV 222355
MTRBKB
METAR KBKB 222354Z AUTO 00000KT 10SM FEW047 26/15 A2988 RMK AO2
SLP144 T02610150 10289 20250 56008





000
SAUS44 KSHV 222257
MTRAQV
METAR KAQV 222256Z AUTO VRB03KT 10SM FEW050 26/16 A2990 RMK AO2
SLPNO T02560156 $





000
SAUS44 KSHV 222256
MTRPOE
METAR KPOE 222255Z AUTO 36005KT 10SM FEW047 26/14 A2991 RMK AO2
SLP128 T02610144





000
SAUS44 KSHV 222255
MTRBKB
METAR KBKB 222254Z AUTO 35004KT 10SM SCT048 28/14 A2988 RMK AO2
SLP145 T02830144





000
SAUS44 KSHV 222159
MTRAQV
METAR KAQV 222156Z AUTO VRB04KT 10SM FEW043 27/16 A2991 RMK AO2
SLPNO T02670161 $





000
SAUS44 KSHV 222157
MTRPOE
METAR KPOE 222155Z AUTO 02006KT 10SM FEW047 27/14 A2992 RMK AO2
SLP132 T02670139





000
SAUS44 KSHV 222155
MTRBKB
METAR KBKB 222154Z AUTO 36004KT 10SM BKN048 28/14 A2989 RMK AO2
SLP149 T02780139





000
SAUS44 KSHV 222057
MTRAQV
METAR KAQV 222056Z AUTO VRB06KT 10SM BKN049 26/16 A2993 RMK AO2
SLPNO 6//// T02610161 $





000
SAUS44 KSHV 222057
MTRPOE
METAR KPOE 222055Z AUTO 02010KT 10SM BKN047 27/14 A2993 RMK AO2
SLP136 T02670144 57018





000
SAUS44 KSHV 222055
MTRBKB
METAR KBKB 222054Z AUTO VRB04KT 10SM BKN045 28/15 A2991 RMK AO2
SLP153 T02830150 56018





000
SAUS44 KSHV 221958
MTRAQV
METAR KAQV 221956Z AUTO 10SM SCT041 BKN049 26/16 A2995 RMK AO2 SLPNO
T02610156 $





000
SAUS44 KSHV 221957
MTRPOE
METAR KPOE 221955Z AUTO 33004KT 10SM CLR 26/15 A2995 RMK AO2 SLP142
T02610150





000
SAUS44 KSHV 221955
MTRBKB
METAR KBKB 221954Z AUTO VRB05KT 10SM BKN042 27/15 A2993 RMK AO2
SLP160 T02670150





000
SAUS44 KSHV 221858
MTRAQV
METAR KAQV 221856Z AUTO VRB03KT 10SM SCT035 SCT043 24/16 A2996 RMK
AO2 SLPNO T02440156 $





000
SAUS44 KSHV 221856
MTRPOE
METAR KPOE 221855Z AUTO 34005KT 10SM CLR 25/14 A2996 RMK AO2 SLP148
T02500144





000
SAUS44 KSHV 221855
MTRBKB
METAR KBKB 221854Z AUTO VRB05KT 10SM CLR 27/14 A2994 RMK AO2 SLP164
T02670144





000
SAUS44 KSHV 221759
MTRAQV
METAR KAQV 221756Z AUTO 35007KT 10SM SCT031 24/16 A2998 RMK AO2
SLPNO 6//// T02390161 $





000
SAUS44 KSHV 221756
MTRPOE
METAR KPOE 221755Z AUTO 32006G14KT 10SM SCT033 24/15 A2998 RMK AO2
SLP155 T02390150 10239 20194 58003





000
SAUS44 KSHV 221756
MTRBKB
METAR KBKB 221754Z AUTO 01006KT 10SM CLR 26/15 A2996 RMK AO2 SLP172
T02560150 10256 20206 58003





000
SAUS44 KSHV 221746
MTRAQV
SPECI KAQV 221744Z 01007KT 10SM CLR 24/16 A2998 RMK AO2 T02390161 $





000
SAUS44 KSHV 221713
MTRPOE
SPECI KPOE 221712Z AUTO VRB05KT 10SM SCT027 24/16 A3000 RMK AO2





000
SAUS44 KSHV 221712
MTRBKB
SPECI KBKB 221710Z AUTO 02007KT 320V060 10SM FEW028 24/15 A2997 RMK
AO2 T02440150





000
SAUS44 KSHV 221703
MTRBKB
SPECI KBKB 221701Z AUTO VRB06KT 10SM BKN028 25/15 A2998 RMK AO2
T02500150





000
SAUS44 KSHV 221656
MTRPOE
METAR KPOE 221655Z AUTO 36007KT 10SM BKN027 22/16 A3001 RMK AO2
SLP162 T02220156





000
SAUS44 KSHV 221655
MTRBKB
METAR KBKB 221654Z AUTO VRB06KT 10SM SCT024 BKN030 24/15 A2998 RMK
AO2 SLP178 T02440150





000
SAUS44 KSHV 221556
MTRPOE
METAR KPOE 221555Z AUTO 01006KT 10SM BKN020 OVC027 21/16 A3001 RMK
AO2 SLP162 T02110161





000
SAUS44 KSHV 221555
MTRBKB
METAR KBKB 221554Z AUTO VRB03KT 10SM BKN021 OVC027 22/16 A2998 RMK
AO2 SLP179 T02220161





000
SAUS44 KSHV 221456
MTRPOE
METAR KPOE 221455Z AUTO 34009KT 10SM OVC018 21/16 A2999 RMK AO2
SLP158 T02060161 53006





000
SAUS44 KSHV 221455
MTRBKB
METAR KBKB 221454Z AUTO 10SM OVC020 22/16 A2997 RMK AO2 SLP174
T02170156 53006





000
SAUS44 KSHV 221356
MTRPOE
METAR KPOE 221355Z AUTO VRB06KT 10SM BKN016 21/17 A2998 RMK AO2
SLP154 T02060172





000
SAUS44 KSHV 221355
MTRBKB
METAR KBKB 221354Z AUTO VRB05KT 10SM OVC016 21/17 A2996 RMK AO2
SLP171 T02110167





000
SAUS44 KSHV 221347
MTRPOE
SPECI KPOE 221346Z AUTO 31008KT 10SM SCT011 OVC018 20/17 A2998 RMK
AO2





000
SAUS44 KSHV 221335
MTRPOE
SPECI KPOE 221334Z AUTO 31008KT 10SM BKN011 OVC016 19/17 A2998 RMK
AO2





000
SAUS44 KSHV 221328
MTRBKB
SPECI KBKB 221327Z AUTO VRB04KT 10SM OVC014 21/17 A2996 RMK AO2
T02060167





000
SAUS44 KSHV 221317
MTRPOE
SPECI KPOE 221316Z AUTO 30009KT 10SM BKN009 OVC014 20/18 A2998 RMK
AO2





000
SAUS44 KSHV 221311
MTRBKB
SPECI KBKB 221310Z AUTO VRB05KT 10SM BKN015 21/17 A2995 RMK AO2
T02110172





000
SAUS44 KSHV 221256
MTRPOE
METAR KPOE 221255Z AUTO 28006KT 9SM OVC007 19/18 A2998 RMK AO2
SLP153 T01940178





000
SAUS44 KSHV 221255
MTRBKB
METAR KBKB 221254Z AUTO VRB04KT 10SM FEW010 21/18 A2996 RMK AO2
SLP170 T02110178





000
SAUS44 KSHV 221248
MTRPOE
SPECI KPOE 221246Z AUTO 27004KT 8SM OVC007 19/18 A2998 RMK AO2 CIG
007V011





000
SAUS44 KSHV 221244
MTRBKB
SPECI KBKB 221242Z AUTO 00000KT 9SM SCT010 21/18 A2995 RMK AO2
T02060178





000
SAUS44 KSHV 221235
MTRBKB
SPECI KBKB 221234Z AUTO VRB03KT 9SM BKN010 21/18 A2995 RMK AO2 CIG
008V013 T02060178





000
SAUS44 KSHV 221225
MTRBKB
SPECI KBKB 221224Z AUTO 00000KT 9SM SCT013 21/18 A2995 RMK AO2
T02060178





000
SAUS44 KSHV 221216
MTRPOE
SPECI KPOE 221215Z AUTO 28006KT 8SM BKN009 BKN013 19/18 A2998 RMK
AO2 CIG 007V013





000
SAUS44 KSHV 221213
MTRBKB
SPECI KBKB 221212Z AUTO 00000KT 9SM SCT010 BKN016 BKN025 21/18 A2995
RMK AO2 T02060178





000
SAUS44 KSHV 221157
MTRPOE
METAR KPOE 221155Z AUTO 28006KT 7SM BKN007 OVC013 19/18 A2998 RMK
AO2 CIG 007V011 SLP151 T01940178 10194 20183 53004





000
SAUS44 KSHV 221156
MTRBKB
METAR KBKB 221154Z AUTO VRB03KT 8SM OVC011 21/18 A2995 RMK AO2
SLP168 T02060178 10206 20194 53004





000
SAUS44 KSHV 221056
MTRBKB
METAR KBKB 221054Z AUTO 00000KT 10SM OVC011 20/17 A2994 RMK AO2 CIG
009V014 SLP164 T02000172





000
SAUS44 KSHV 221056
MTRPOE
METAR KPOE 221055Z AUTO 26007KT 9SM OVC007 19/18 A2997 RMK AO2
SLP148 T01940178





000
SAUS44 KSHV 221037
MTRBKB
SPECI KBKB 221036Z AUTO VRB03KT 10SM OVC013 20/17 A2993 RMK AO2
T02000172





000
SAUS44 KSHV 221029
MTRPOE
SPECI KPOE 221028Z AUTO 26005KT 10SM OVC009 19/18 A2996 RMK AO2 CIG
007V012





000
SAUS44 KSHV 221009
MTRBKB
SPECI KBKB 221008Z AUTO 00000KT 9SM SCT007 OVC016 20/17 A2994 RMK
AO2 T02000172





000
SAUS44 KSHV 220956
MTRPOE
METAR KPOE 220955Z AUTO 25005KT 10SM FEW006 OVC011 19/18 A2996 RMK
AO2 SLP147 T01940178





000
SAUS44 KSHV 220955
MTRBKB
METAR KBKB 220954Z AUTO VRB03KT 9SM BKN007 OVC015 20/17 A2994 RMK
AO2 CIG 006V010 SLP164 T02000172





000
SAUS44 KSHV 220949
MTRPOE
SPECI KPOE 220947Z AUTO 26005KT 10SM BKN009 OVC016 19/18 A2997 RMK
AO2 CIG 006V013





000
SAUS44 KSHV 220856
MTRPOE
METAR KPOE 220855Z AUTO 25005KT 10SM OVC006 19/18 A2996 RMK AO2
SLP147 T01890178 55003





000
SAUS44 KSHV 220855
MTRBKB
METAR KBKB 220854Z AUTO VRB04KT 10SM OVC007 20/17 A2994 RMK AO2
SLP163 T02000172 55005





000
SAUS44 KSHV 220756
MTRPOE
METAR KPOE 220755Z AUTO 23006KT 10SM OVC006 19/17 A2995 RMK AO2
SLP141 T01890172





000
SAUS44 KSHV 220755
MTRBKB
METAR KBKB 220754Z AUTO VRB03KT 10SM OVC008 20/17 A2992 RMK AO2
SLP157 T02000172





000
SAUS44 KSHV 220750
MTRPOE
SPECI KPOE 220748Z AUTO 23005KT 10SM OVC006 19/17 A2994 RMK AO2





000
SAUS44 KSHV 220656
MTRPOE
METAR KPOE 220655Z AUTO 20005KT 10SM OVC008 18/17 A2996 RMK AO2
SLP148 T01830172





000
SAUS44 KSHV 220655
MTRBKB
METAR KBKB 220654Z AUTO VRB04KT 10SM OVC008 20/17 A2994 RMK AO2
SLP166 T02000172





000
SAUS44 KSHV 220623
MTRPOE
SPECI KPOE 220622Z AUTO 22005KT 10SM BKN008 18/17 A2998 RMK AO2





000
SAUS44 KSHV 220611
MTRPOE
SPECI KPOE 220610Z AUTO 23004KT 10SM SCT008 18/17 A2999 RMK AO2





000
SAUS44 KSHV 220601
MTRBKB
SPECI KBKB 220601Z AUTO VRB05KT 10SM BKN009 19/17 A2996 RMK AO2
T01940167





000
SAUS44 KSHV 220556
MTRBKB
METAR KBKB 220554Z AUTO 21004KT 10SM SCT009 19/17 A2995 RMK AO2
SLP169 T01940167 10261 20194 402890150 58010





000
SAUS44 KSHV 220556
MTRPOE
METAR KPOE 220555Z AUTO 20006KT 10SM CLR 18/17 A2997 RMK AO2 SLP150
T01830167 10250 20183 58012





000
SAUS44 KSHV 220547
MTRBKB
SPECI KBKB 220546Z AUTO VRB04KT 10SM SCT009 19/17 A2995 RMK AO2
T01940167





000
SAUS44 KSHV 220457
MTRPOE
METAR KPOE 220455Z AUTO 21003KT 10SM CLR 19/17 A3000 RMK AO2 SLP159
T01890167 402780133





000
SAUS44 KSHV 220455
MTRBKB
METAR KBKB 220454Z AUTO VRB03KT 10SM CLR 20/16 A2997 RMK AO2 SLP175
T02000161





000
SAUS44 KSHV 220357
MTRPOE
METAR KPOE 220355Z AUTO 17005KT 10SM CLR 19/16 A3000 RMK AO2 SLP161
T01890161





000
SAUS44 KSHV 220355
MTRBKB
METAR KBKB 220354Z AUTO VRB04KT 10SM CLR 21/16 A2998 RMK AO2 SLP177
T02060156





000
SAUS44 KSHV 220257
MTRPOE
METAR KPOE 220255Z AUTO 19007KT 10SM FEW055 21/15 A3001 RMK AO2
SLP163 T02060150 53018





000
SAUS44 KSHV 220255
MTRBKB
METAR KBKB 220254Z AUTO VRB04KT 10SM CLR 22/15 A2998 RMK AO2 SLP180
T02170150 53017





000
SAUS44 KSHV 220157
MTRPOE
METAR KPOE 220155Z AUTO 18006KT 10SM OVC050 22/13 A2998 RMK AO2
SLP154 T02170133





000
SAUS44 KSHV 220155
MTRBKB
METAR KBKB 220154Z AUTO 20005KT 10SM BKN055 23/14 A2996 RMK AO2
SLP172 T02280139





000
SAUS44 KSHV 220056
MTRPOE
METAR KPOE 220055Z AUTO 19006KT 10SM FEW048 SCT060 23/14 A2997 RMK
AO2 SLP149 T02280139





000
SAUS44 KSHV 220055
MTRBKB
METAR KBKB 220054Z AUTO 00000KT 10SM FEW060 23/13 A2995 RMK AO2
SLP169 T02330133





000
SAUS44 KSHV 212357
MTRPOE
METAR KPOE 212355Z AUTO 20006KT 10SM CLR 25/14 A2996 RMK AO2 SLP145
T02500139 10278 20250 56017





000
SAUS44 KSHV 212356
MTRBKB
METAR KBKB 212354Z AUTO 00000KT 10SM CLR 26/12 A2993 RMK AO2 SLP163
T02610122 10289 20261 56014





000
SAUS44 KSHV 212256
MTRPOE
METAR KPOE 212255Z AUTO 21008KT 10SM SCT060 26/13 A2996 RMK AO2
SLP146 T02610133





000
SAUS44 KSHV 212255
MTRBKB
METAR KBKB 212254Z AUTO VRB05KT 10SM CLR 28/12 A2993 RMK AO2 SLP163
T02780122





000
SAUS44 KSHV 212157
MTRPOE
METAR KPOE 212155Z AUTO 22008KT 10SM FEW060 27/13 A2998 RMK AO2
SLP153 T02670128





000
SAUS44 KSHV 212155
MTRBKB
METAR KBKB 212154Z AUTO 21004KT 10SM BKN060 28/12 A2995 RMK AO2
SLP168 T02830122





000
SAUS44 KSHV 212057
MTRPOE
METAR KPOE 212055Z AUTO VRB06G15KT 10SM FEW055 27/12 A3001 RMK AO2
SLP161 T02670117 58024





000
SAUS44 KSHV 212055
MTRBKB
METAR KBKB 212054Z AUTO VRB05KT 10SM CLR 28/12 A2998 RMK AO2 SLP176
T02830117 58024





000
SAUS44 KSHV 211956
MTRPOE
METAR KPOE 211955Z AUTO 22008KT 10SM CLR 27/12 A3003 RMK AO2 SLP171
T02670122





000
SAUS44 KSHV 211955
MTRBKB
METAR KBKB 211954Z AUTO VRB04KT 10SM CLR 28/12 A3001 RMK AO2 SLP187
T02830122





000
SAUS44 KSHV 211856
MTRPOE
METAR KPOE 211855Z AUTO 22007G15KT 190V250 10SM SCT090 26/11 A3005
RMK AO2 SLP178 T02560111





000
SAUS44 KSHV 211855
MTRBKB
METAR KBKB 211854Z AUTO VRB06G14KT 10SM FEW060 28/12 A3003 RMK AO2
SLP194 T02780117





000
SAUS44 KSHV 211800 COR
MTRPOE
METAR KPOE 211755Z AUTO 24010G17KT 10SM BKN080 25/11 A3008 RMK AO2
SLP186 T02500106 10261 20133 58008





000
SAUS44 KSHV 211758 COR
MTRPOE
METAR KPOE 211755Z AUTO 24010G17KT 10SM BKN080 25/11 A3008 RMK AO2
SLP186 T02500106 10261 20133 58008





000
SAUS44 KSHV 211757
MTRPOE
METAR KPOE 211755Z AUTO 24010G17KT 10SM BKN080 25/11 A3008 RMK AO2
SLP186 T02500106 10261 20133 58008





000
SAUS44 KSHV 211755
MTRBKB
METAR KBKB 211754Z AUTO VRB03KT 10SM CLR 27/11 A3005 RMK AO2 SLP201
T02670111 10272 20150 58010





000
SAUS44 KSHV 211657
MTRPOE
METAR KPOE 211655Z AUTO 26006KT 10SM CLR 24/12 A3009 RMK AO2 SLP190
T02440122





000
SAUS44 KSHV 211655
MTRBKB
METAR KBKB 211654Z AUTO 20004KT 10SM CLR 26/12 A3006 RMK AO2 SLP206
T02560117





000
SAUS44 KSHV 211557
MTRPOE
METAR KPOE 211555Z AUTO 20007KT 10SM CLR 23/12 A3009 RMK AO2 SLP192
T02330122





000
SAUS44 KSHV 211555
MTRBKB
METAR KBKB 211554Z AUTO VRB05KT 10SM CLR 24/13 A3008 RMK AO2 SLP211
T02440128





000
SAUS44 KSHV 211457
MTRPOE
METAR KPOE 211455Z AUTO VRB06KT 10SM CLR 22/13 A3010 RMK AO2 SLP194
T02170128 51004





000
SAUS44 KSHV 211455
MTRBKB
METAR KBKB 211454Z AUTO VRB05KT 10SM CLR 23/13 A3008 RMK AO2 SLP212
T02280128 51004





000
SAUS44 KSHV 211416
MTRPOE
SPECI KPOE 211415Z AUTO 21005KT 10SM FEW002 20/13 A3009 RMK AO2





000
SAUS44 KSHV 211357
MTRPOE
METAR KPOE 211355Z AUTO 21004KT 10SM CLR 19/13 A3010 RMK AO2 SLP193
T01940133





000
SAUS44 KSHV 211356
MTRBKB
METAR KBKB 211354Z AUTO 21004KT 10SM CLR 21/13 A3007 RMK AO2 SLP210
T02060128





000
SAUS44 KSHV 211256
MTRBKB
METAR KBKB 211254Z AUTO 00000KT 10SM CLR 17/13 A3008 RMK AO2 SLP212
T01720133 $





000
SAUS44 KSHV 211256
MTRPOE
METAR KPOE 211255Z AUTO 00000KT 10SM FEW002 17/13 A3009 RMK AO2
SLP193 T01670128





000
SAUS44 KSHV 211237
MTRPOE
SPECI KPOE 211236Z AUTO 00000KT 10SM FEW002 15/13 A3009 RMK AO2 $





000
SAUS44 KSHV 211156
MTRPOE
METAR KPOE 211155Z AUTO 00000KT 10SM FEW100 13/12 A3009 RMK AO2
SLP190 T01330122 10183 20133 55000 $





000
SAUS44 KSHV 211156
MTRBKB
METAR KBKB 211154Z AUTO 00000KT 10SM SCT100 15/12 A3007 RMK AO2
SLP209 T01500122 10172 20150 56000 $





000
SAUS44 KSHV 211056
MTRBKB
METAR KBKB 211054Z AUTO 00000KT 10SM BKN100 16/13 A3007 RMK AO2
SLP208 T01560128 $





000
SAUS44 KSHV 211056
MTRPOE
METAR KPOE 211055Z AUTO 00000KT 10SM BKN100 15/13 A3008 RMK AO2
SLP189 T01500128 $





000
SAUS44 KSHV 210956
MTRPOE
METAR KPOE 210955Z AUTO 00000KT 10SM OVC100 16/12 A3009 RMK AO2
SLP189 T01610122 $





000
SAUS44 KSHV 210955
MTRBKB
METAR KBKB 210954Z AUTO 00000KT 10SM OVC100 16/13 A3007 RMK AO2
SLP208 T01560133 $





000
SAUS44 KSHV 210857
MTRPOE
METAR KPOE 210855Z AUTO VRB03KT 10SM OVC100 17/12 A3009 RMK AO2
SLP190 T01670122 55005 $





000
SAUS44 KSHV 210855
MTRBKB
METAR KBKB 210854Z AUTO 00000KT 10SM BKN100 16/13 A3007 RMK AO2
SLP208 T01560133 $





000
SAUS44 KSHV 210756
MTRPOE
METAR KPOE 210755Z AUTO 00000KT 10SM CLR 15/13 A3009 RMK AO2 SLP190
T01500128 $





000
SAUS44 KSHV 210756
MTRBKB
METAR KBKB 210754Z AUTO 00000KT 16/13 A3007 RMK AO2 SLP208 T01610128
$





000
SAUS44 KSHV 210656
MTRPOE
METAR KPOE 210655Z AUTO 00000KT 10SM CLR 17/12 A3010 RMK AO2 SLP193
T01720122 $





000
SAUS44 KSHV 210655
MTRBKB
METAR KBKB 210654Z AUTO 00000KT 10SM CLR 17/13 A3008 RMK AO2 SLP211
T01670128





000
SAUS44 KSHV 210557
MTRAQV
METAR KAQV 210556Z AUTO VRB03KT 10SM CLR 19/13 A3009 RMK AO2 SLP186
T01890128 10261 20178 402830117 $





000
SAUS44 KSHV 210556
MTRPOE
METAR KPOE 210555Z AUTO 00000KT 10SM CLR 18/12 A3010 RMK AO2 SLP195
T01830122 10250 20183 52001 $





000
SAUS44 KSHV 210555
MTRBKB
METAR KBKB 210554Z AUTO 00000KT 10SM CLR 17/13 A3008 RMK AO2 SLP213
T01720128 10261 20172 402940117 52003





000
SAUS44 KSHV 210458
MTRAQV
METAR KAQV 210456Z AUTO 22003KT 10SM 19/13 A3009 RMK AO2 SLP187
T01940133 $





000
SAUS44 KSHV 210456
MTRPOE
METAR KPOE 210455Z AUTO 00000KT 10SM CLR 18/13 A3010 RMK AO2 SLP194
T01830128 402780117 $





000
SAUS44 KSHV 210455
MTRBKB
METAR KBKB 210454Z AUTO 00000KT 10SM CLR 18/13 A3008 RMK AO2 SLP211
T01830133





000
SAUS44 KSHV 210359
MTRAQV
METAR KAQV 210356Z AUTO 00000KT 10SM CLR 18/14 A3009 RMK AO2 SLP185
T01830144





000
SAUS44 KSHV 210356
MTRPOE
METAR KPOE 210355Z AUTO 00000KT 10SM CLR 19/13 A3010 RMK AO2 SLP195
T01940133 $





000
SAUS44 KSHV 210355
MTRBKB
METAR KBKB 210354Z AUTO 00000KT 10SM CLR 19/14 A3008 RMK AO2 SLP212
T01890139





000
SAUS44 KSHV 210258
MTRAQV
METAR KAQV 210256Z AUTO 00000KT 10SM CLR 18/15 A3008 RMK AO2 SLP186
T01780150 53014





000
SAUS44 KSHV 210257
MTRPOE
METAR KPOE 210255Z AUTO 20003KT 10SM CLR 20/13 A3010 RMK AO2 SLP194
T02000133 53014 $





000
SAUS44 KSHV 210256
MTRBKB
METAR KBKB 210254Z AUTO 00000KT 10SM CLR 19/14 A3008 RMK AO2 SLP210
T01940144 53013





000
SAUS44 KSHV 210157
MTRAQV
METAR KAQV 210156Z AUTO 00000KT 10SM CLR 19/16 A3007 RMK AO2 SLP179
T01940156





000
SAUS44 KSHV 210157
MTRPOE
METAR KPOE 210155Z 17004KT 10SM CLR 21/13 A3008 RMK AO2 SLP187
T02060133 $





000
SAUS44 KSHV 210155
MTRBKB
METAR KBKB 210154Z AUTO 00000KT 10SM CLR 21/14 A3006 RMK AO2 SLP205
T02060139





000
SAUS44 KSHV 210058
MTRAQV
METAR KAQV 210056Z AUTO 00000KT 10SM CLR 22/14 A3005 RMK AO2 SLP175
T02220144





000
SAUS44 KSHV 210056
MTRPOE
METAR KPOE 210055Z 17004KT 10SM CLR 22/13 A3007 RMK AO2 SLP183
T02220128 $





000
SAUS44 KSHV 210055
MTRBKB
METAR KBKB 210054Z AUTO 00000KT 10SM CLR 23/14 A3005 RMK AO2 SLP201
T02280139





000
SAUS44 KSHV 210033
MTRPOE
SPECI KPOE 210032Z 16004KT 10SM FEW003 23/13 A3006 RMK AO2 $





000
SAUS44 KSHV 202357
MTRAQV
METAR KAQV 202356Z AUTO 19003KT 10SM FEW060 26/12 A3004 RMK AO2
SLP172 T02610122 10283 20250 56012





000
SAUS44 KSHV 202357
MTRPOE
METAR KPOE 202355Z 17005KT 10SM CLR 25/13 A3006 RMK AO2 SLP181
T02500128 10278 20244 56012 $





000
SAUS44 KSHV 202356
MTRBKB
METAR KBKB 202354Z AUTO 00000KT 10SM CLR 26/13 A3004 RMK AO2 SLP198
T02610128 10294 20261 56010





000
SAUS44 KSHV 202259
MTRAQV
METAR KAQV 202256Z AUTO 17004KT 10SM CLR 27/12 A3005 RMK AO2 SLP174
T02720122





    US Dept of Commerce
    National Oceanic and Atmospheric Administration
    National Weather Service
    1325 East West Highway
    Silver Spring, MD 20910
    Page Author: NWS Internet Services Team
Disclaimer
Information Quality
Credits
Glossary
Privacy Policy
Freedom of Information Act (FOIA)
About Us
Career Opportunities